Terminal Aerodrome Forecast
Issued by NWS Cleveland, OH

Home | Current Version | Previous Version | Text Only | Print | Product List | Glossary Off
Versions: 1 2 3 4 5 6 7 8 9 10 11 12 13 14 15 16 17 18 19 20 21 22 23

000
FTUS41 KCLE 110327 AAB
TAFERI
TAF AMD
KERI 110327Z 1103/1124 22012G20KT P6SM VCSH SCT015 OVC025
      TEMPO 1103/1104 2SM -SHSN OVC015
     FM110400 27014G22KT 3SM -SHSN SCT006 OVC015
      TEMPO 1104/1108 3/4SM -SHSN OVC006
     FM111100 33008KT P6SM VCSH SCT015 OVC025
     FM111500 22008KT P6SM SCT015 OVC025=

USA.gov is the U.S. government's official web portal to all federal, state and local government web resources and services.